LIRQLIRP

Guest
Details From LIRQ - Firenze
To LIRP - Pisa
Flight Number -
Tags Routegen Generated
Created
Modified
Stats Distance 37 nm / 69 km
Max Altitude 100 ft / 30 m
Waypoints 5
Social Downloads 6
Likes 0
Share

Download

Looking for another format? Having issues loading an existing format? Contact us
Advertisement - Login to hide

Notes

Departing runway 22 LIRQ. Arriving runway 3 LIRP.

Route

LIRQ +43.76_+011.12 +43.75_+010.79 +43.75_+010.47 LIRP

ID Type Via Altitude (ft/m) Position (lat/lon) Dist (leg/tot) Name
O LIRQ APT - 0 / 0 43.80507 / 11.19741 - / 0 nm
+43.76_+011.12 LATLON - 100 / 30 43.75712 / 11.12233 4 / 4 nm
+43.75_+010.79 LATLON - 100 / 30 43.75488 / 10.79387 14 / 18 nm
+43.75_+010.47 LATLON - 100 / 30 43.75263 / 10.46540 14 / 32 nm
O LIRP APT - 0 / 0 43.69465 / 10.40548 4 / 37 nm

Altitude Profile

Advertisement - Login to hide

LIRQ

Details ICAO LIRQ (FLR)
Name Firenze-Peretola "Amerigo Vespucci"
Region Italy
Timezone Europe/Rome (UTC+1.0)
Stats Elevation 142 ft / 43 m (AMSL)
Location 43.810000° 11.205100°
Runways 1
Magnetic Variation 3.218° E

METAR

LIRQ 272150Z VRB02KT 9999 BKN050 04/M02 Q1016

Decode

TAF

TAF LIRQ 271700Z 2718/2818 VRB05KT CAVOK

Decode

Departure Runways

ID Width Length Bearing (true/mag) Surface Threshold Overrun Markings Lighting
05 98 ft / 30 m 5,123 ft / 1,561 m 48.10° / 44.89° ASPHALT 338 ft / 103 m 0 ft / 0 m PREC-APP CENTERLINE EDGE THRESHOLD SSALF TDZ REIL-OMNI
23 98 ft / 30 m 5,123 ft / 1,561 m 228.11° / 224.90° ASPHALT 1,903 ft / 580 m 0 ft / 0 m VISUAL CENTERLINE EDGE THRESHOLD REIL-OMNI

LIRP

Details ICAO LIRP (PSA)
Name Pisa-San Giusto "Galileo Galilei"
Region Italy
Timezone Europe/Rome (UTC+1.0)
Stats Elevation 4 ft / 1 m (AMSL)
Location 43.682800° 10.395600°
Runways 2
Magnetic Variation 3.048° E

METAR

LIRP 272145Z 14002KT 9999 SCT040 04/01 Q1017 NOSIG

Decode

TAF

TAF LIRP 271700Z 2718/2818 11005KT 9999 SCT070 TEMPO 2722/2806 5000 BR

Decode

Destination Runways

ID Width Length Bearing (true/mag) Surface Threshold Overrun Markings Lighting
04L 148 ft / 45 m 8,984 ft / 2,738 m 36.71° / 33.67° ASPHALT 791 ft / 241 m 0 ft / 0 m PREC-APP CENTERLINE EDGE THRESHOLD SALS REIL-OMNI
04R 148 ft / 45 m 9,825 ft / 2,995 m 36.73° / 33.68° ASPHALT 463 ft / 141 m 0 ft / 0 m PREC-APP CENTERLINE EDGE THRESHOLD CALVERT-ILS TDZ REIL-OMNI
22L 148 ft / 45 m 9,825 ft / 2,995 m 216.74° / 213.69° ASPHALT 833 ft / 254 m 190 ft / 58 m PREC-APP CENTERLINE EDGE THRESHOLD SALS REIL-OMNI
22R 148 ft / 45 m 8,984 ft / 2,738 m 216.73° / 213.68° ASPHALT 0 ft / 0 m 190 ft / 58 m PREC-APP CENTERLINE EDGE THRESHOLD REIL-OMNI

Approach Navaids

Runway Type Ident Frequency Range Bearing (true/mag) Slope Elevation
04R OM OM - - 36.72° / 33.67 ° - 6 ft / 2 m (AMSL)
04R MM MM - - 36.72° / 33.67 ° - 6 ft / 2 m (AMSL)
04R LOC-ILS IPI 109.70 MHz 18 nm / 33 km 36.76° / 33.71 ° - 7 ft / 2 m (AMSL)
04R GS IPI 109.70 MHz 10 nm / 19 km 37.45° / 34.40 ° 3.00° 3 ft / 1 m (AMSL)

Popular Alternatives